sensor_id;sensor_type;location;lat;lon;timestamp;pressure;altitude;pressure_sealevel;temperature;humidity
9831;BME280;4954;48.476;8.168;2024-02-23T00:01:45;96596.44;;;6.31;nan
9831;BME280;4954;48.476;8.168;2024-02-23T00:04:14;96604.00;;;6.31;nan
9831;BME280;4954;48.476;8.168;2024-02-23T00:06:41;96632.59;;;6.35;nan
9831;BME280;4954;48.476;8.168;2024-02-23T00:09:08;96626.69;;;6.33;nan
9831;BME280;4954;48.476;8.168;2024-02-23T00:11:35;96634.28;;;6.37;nan
9831;BME280;4954;48.476;8.168;2024-02-23T00:14:06;96634.28;;;6.39;nan
9831;BME280;4954;48.476;8.168;2024-02-23T00:16:37;96635.09;;;6.41;nan
9831;BME280;4954;48.476;8.168;2024-02-23T00:19:05;96630.91;;;6.41;nan
9831;BME280;4954;48.476;8.168;2024-02-23T00:21:36;96620.81;;;6.43;nan
9831;BME280;4954;48.476;8.168;2024-02-23T00:24:04;96630.06;;;6.39;nan
9831;BME280;4954;48.476;8.168;2024-02-23T00:26:31;96610.72;;;6.34;nan
9831;BME280;4954;48.476;8.168;2024-02-23T00:28:58;96609.03;;;6.33;nan
9831;BME280;4954;48.476;8.168;2024-02-23T00:31:25;96618.31;;;6.31;nan
9831;BME280;4954;48.476;8.168;2024-02-23T00:33:52;96627.59;;;6.27;nan
9831;BME280;4954;48.476;8.168;2024-02-23T00:36:19;96636.00;;;6.26;nan
9831;BME280;4954;48.476;8.168;2024-02-23T00:38:47;96631.78;;;6.25;nan
9831;BME280;4954;48.476;8.168;2024-02-23T00:41:14;96633.47;;;6.23;nan
9831;BME280;4954;48.476;8.168;2024-02-23T00:43:41;96623.34;;;6.28;nan
9831;BME280;4954;48.476;8.168;2024-02-23T00:46:08;96622.50;;;6.33;nan
9831;BME280;4954;48.476;8.168;2024-02-23T00:48:35;96625.88;;;6.28;nan
9831;BME280;4954;48.476;8.168;2024-02-23T00:51:03;96617.47;;;6.29;nan
9831;BME280;4954;48.476;8.168;2024-02-23T00:53:31;96620.00;;;6.29;nan
9831;BME280;4954;48.476;8.168;2024-02-23T00:55:59;96609.06;;;6.28;nan
9831;BME280;4954;48.476;8.168;2024-02-23T00:58:26;96602.28;;;6.30;nan
9831;BME280;4954;48.476;8.168;2024-02-23T01:00:53;96601.50;;;6.22;nan
9831;BME280;4954;48.476;8.168;2024-02-23T01:03:20;96622.53;;;6.27;nan
9831;BME280;4954;48.476;8.168;2024-02-23T01:05:47;96637.63;;;6.38;nan
9831;BME280;4954;48.476;8.168;2024-02-23T01:08:14;96649.41;;;6.43;nan
9831;BME280;4954;48.476;8.168;2024-02-23T01:10:41;96644.38;;;6.43;nan
9831;BME280;4954;48.476;8.168;2024-02-23T01:13:09;96646.91;;;6.40;nan
9831;BME280;4954;48.476;8.168;2024-02-23T01:15:36;96649.44;;;6.40;nan
9831;BME280;4954;48.476;8.168;2024-02-23T01:18:03;96656.16;;;6.40;nan
9831;BME280;4954;48.476;8.168;2024-02-23T01:20:33;96657.81;;;6.48;nan
9831;BME280;4954;48.476;8.168;2024-02-23T01:23:00;96654.44;;;6.51;nan
9831;BME280;4954;48.476;8.168;2024-02-23T01:25:27;96664.53;;;6.49;nan
9831;BME280;4954;48.476;8.168;2024-02-23T01:27:54;96670.47;;;6.45;nan
9831;BME280;4954;48.476;8.168;2024-02-23T01:30:22;96675.53;;;6.45;nan
9831;BME280;4954;48.476;8.168;2024-02-23T01:32:49;96672.97;;;6.48;nan
9831;BME280;4954;48.476;8.168;2024-02-23T01:35:16;96677.16;;;6.57;nan
9831;BME280;4954;48.476;8.168;2024-02-23T01:37:43;96667.06;;;6.54;nan
9831;BME280;4954;48.476;8.168;2024-02-23T01:40:10;96672.13;;;6.49;nan
9831;BME280;4954;48.476;8.168;2024-02-23T01:42:37;96664.56;;;6.46;nan
9831;BME280;4954;48.476;8.168;2024-02-23T01:45:05;96666.25;;;6.44;nan
9831;BME280;4954;48.476;8.168;2024-02-23T01:47:35;96678.91;;;6.40;nan
9831;BME280;4954;48.476;8.168;2024-02-23T01:50:02;96664.59;;;6.36;nan
9831;BME280;4954;48.476;8.168;2024-02-23T01:52:30;96655.34;;;6.35;nan
9831;BME280;4954;48.476;8.168;2024-02-23T01:54:58;96656.19;;;6.32;nan
9831;BME280;4954;48.476;8.168;2024-02-23T01:57:26;96680.59;;;6.30;nan
9831;BME280;4954;48.476;8.168;2024-02-23T01:59:54;96679.75;;;6.28;nan
9831;BME280;4954;48.476;8.168;2024-02-23T02:02:22;96686.50;;;6.28;nan
9831;BME280;4954;48.476;8.168;2024-02-23T02:04:50;96699.97;;;6.25;nan
9831;BME280;4954;48.476;8.168;2024-02-23T02:07:17;96680.63;;;6.27;nan
9831;BME280;4954;48.476;8.168;2024-02-23T02:09:45;96678.09;;;6.21;nan
9831;BME280;4954;48.476;8.168;2024-02-23T02:12:12;96685.69;;;6.20;nan
9831;BME280;4954;48.476;8.168;2024-02-23T02:14:39;96683.16;;;6.17;nan
9831;BME280;4954;48.476;8.168;2024-02-23T02:17:06;96678.09;;;6.18;nan
9831;BME280;4954;48.476;8.168;2024-02-23T02:19:33;96681.44;;;6.20;nan
9831;BME280;4954;48.476;8.168;2024-02-23T02:22:02;96665.47;;;6.20;nan
9831;BME280;4954;48.476;8.168;2024-02-23T02:24:29;96672.19;;;6.18;nan
9831;BME280;4954;48.476;8.168;2024-02-23T02:26:57;96673.91;;;6.16;nan
9831;BME280;4954;48.476;8.168;2024-02-23T02:29:23;96673.06;;;6.09;nan
9831;BME280;4954;48.476;8.168;2024-02-23T02:31:50;96673.91;;;6.07;nan
9831;BME280;4954;48.476;8.168;2024-02-23T02:34:17;96669.72;;;6.06;nan
9831;BME280;4954;48.476;8.168;2024-02-23T02:36:44;96670.56;;;6.06;nan
9831;BME280;4954;48.476;8.168;2024-02-23T02:39:12;96677.28;;;6.04;nan
9831;BME280;4954;48.476;8.168;2024-02-23T02:41:39;96674.75;;;6.03;nan
9831;BME280;4954;48.476;8.168;2024-02-23T02:44:06;96673.94;;;6.02;nan
9831;BME280;4954;48.476;8.168;2024-02-23T02:46:34;96682.34;;;5.98;nan
9831;BME280;4954;48.476;8.168;2024-02-23T02:49:02;96674.75;;;5.98;nan
9831;BME280;4954;48.476;8.168;2024-02-23T02:51:29;96669.72;;;5.89;nan
9831;BME280;4954;48.476;8.168;2024-02-23T02:53:56;96681.53;;;5.81;nan
9831;BME280;4954;48.476;8.168;2024-02-23T02:56:24;96674.75;;;5.68;nan
9831;BME280;4954;48.476;8.168;2024-02-23T02:58:51;96666.31;;;5.62;nan
9831;BME280;4954;48.476;8.168;2024-02-23T03:01:18;96677.28;;;5.55;nan
9831;BME280;4954;48.476;8.168;2024-02-23T03:03:45;96665.47;;;5.48;nan
9831;BME280;4954;48.476;8.168;2024-02-23T03:06:12;96658.75;;;5.44;nan
9831;BME280;4954;48.476;8.168;2024-02-23T03:08:41;96665.47;;;5.48;nan
9831;BME280;4954;48.476;8.168;2024-02-23T03:11:08;96658.75;;;5.48;nan
9831;BME280;4954;48.476;8.168;2024-02-23T03:13:37;96652.84;;;5.40;nan
9831;BME280;4954;48.476;8.168;2024-02-23T03:16:04;96653.72;;;5.42;nan
9831;BME280;4954;48.476;8.168;2024-02-23T03:18:31;96652.88;;;5.42;nan
9831;BME280;4954;48.476;8.168;2024-02-23T03:20:57;96658.75;;;5.35;nan
9831;BME280;4954;48.476;8.168;2024-02-23T03:23:24;96654.56;;;5.32;nan
9831;BME280;4954;48.476;8.168;2024-02-23T03:25:51;96652.03;;;5.31;nan
9831;BME280;4954;48.476;8.168;2024-02-23T03:28:18;96656.22;;;5.24;nan
9831;BME280;4954;48.476;8.168;2024-02-23T03:30:46;96643.59;;;5.20;nan
9831;BME280;4954;48.476;8.168;2024-02-23T03:33:13;96654.50;;;5.14;nan
9831;BME280;4954;48.476;8.168;2024-02-23T03:35:40;96660.38;;;5.10;nan
9831;BME280;4954;48.476;8.168;2024-02-23T03:38:07;96661.19;;;5.06;nan
9831;BME280;4954;48.476;8.168;2024-02-23T03:40:34;96668.75;;;5.05;nan
9831;BME280;4954;48.476;8.168;2024-02-23T03:43:02;96665.41;;;5.04;nan
9831;BME280;4954;48.476;8.168;2024-02-23T03:45:31;96667.06;;;5.02;nan
9831;BME280;4954;48.476;8.168;2024-02-23T03:48:00;96677.19;;;5.01;nan
9831;BME280;4954;48.476;8.168;2024-02-23T03:50:29;96668.75;;;5.00;nan
9831;BME280;4954;48.476;8.168;2024-02-23T03:52:57;96662.03;;;4.98;nan
9831;BME280;4954;48.476;8.168;2024-02-23T03:55:23;96660.34;;;4.94;nan
9831;BME280;4954;48.476;8.168;2024-02-23T03:57:50;96663.69;;;4.93;nan
9831;BME280;4954;48.476;8.168;2024-02-23T04:00:18;96663.72;;;4.94;nan
9831;BME280;4954;48.476;8.168;2024-02-23T04:02:46;96664.53;;;4.96;nan
9831;BME280;4954;48.476;8.168;2024-02-23T04:05:14;96666.22;;;4.97;nan
9831;BME280;4954;48.476;8.168;2024-02-23T04:07:41;96663.72;;;4.96;nan
9831;BME280;4954;48.476;8.168;2024-02-23T04:10:08;96665.38;;;4.94;nan
9831;BME280;4954;48.476;8.168;2024-02-23T04:12:35;96656.97;;;4.92;nan
9831;BME280;4954;48.476;8.168;2024-02-23T04:15:03;96661.16;;;4.90;nan
9831;BME280;4954;48.476;8.168;2024-02-23T04:17:30;96660.31;;;4.88;nan
9831;BME280;4954;48.476;8.168;2024-02-23T04:19:59;96669.53;;;4.83;nan
9831;BME280;4954;48.476;8.168;2024-02-23T04:22:28;96675.41;;;4.85;nan
9831;BME280;4954;48.476;8.168;2024-02-23T04:24:55;96663.66;;;4.82;nan
9831;BME280;4954;48.476;8.168;2024-02-23T04:27:22;96657.81;;;4.83;nan
9831;BME280;4954;48.476;8.168;2024-02-23T04:29:49;96675.41;;;4.85;nan
9831;BME280;4954;48.476;8.168;2024-02-23T04:32:16;96681.34;;;4.88;nan
9831;BME280;4954;48.476;8.168;2024-02-23T04:34:43;96672.94;;;4.89;nan
9831;BME280;4954;48.476;8.168;2024-02-23T04:37:09;96668.72;;;4.93;nan
9831;BME280;4954;48.476;8.168;2024-02-23T04:39:38;96662.84;;;4.92;nan
9831;BME280;4954;48.476;8.168;2024-02-23T04:42:07;96668.75;;;4.96;nan
9831;BME280;4954;48.476;8.168;2024-02-23T04:44:34;96668.75;;;4.99;nan
9831;BME280;4954;48.476;8.168;2024-02-23T04:47:02;96663.72;;;5.05;nan
9831;BME280;4954;48.476;8.168;2024-02-23T04:49:29;96651.97;;;5.05;nan
9831;BME280;4954;48.476;8.168;2024-02-23T04:51:56;96659.53;;;5.05;nan
9831;BME280;4954;48.476;8.168;2024-02-23T04:54:23;96648.59;;;5.08;nan
9831;BME280;4954;48.476;8.168;2024-02-23T04:56:51;96648.59;;;5.08;nan
9831;BME280;4954;48.476;8.168;2024-02-23T04:59:18;96646.09;;;5.03;nan
9831;BME280;4954;48.476;8.168;2024-02-23T05:01:45;96641.88;;;4.98;nan
9831;BME280;4954;48.476;8.168;2024-02-23T05:04:12;96656.16;;;4.99;nan
9831;BME280;4954;48.476;8.168;2024-02-23T05:06:39;96661.19;;;5.06;nan
9831;BME280;4954;48.476;8.168;2024-02-23T05:09:07;96657.03;;;5.13;nan
9831;BME280;4954;48.476;8.168;2024-02-23T05:11:35;96662.91;;;5.16;nan
9831;BME280;4954;48.476;8.168;2024-02-23T05:14:03;96667.97;;;5.21;nan
9831;BME280;4954;48.476;8.168;2024-02-23T05:16:30;96665.44;;;5.25;nan
9831;BME280;4954;48.476;8.168;2024-02-23T05:18:56;96661.25;;;5.36;nan
9831;BME280;4954;48.476;8.168;2024-02-23T05:21:23;96657.91;;;5.40;nan
9831;BME280;4954;48.476;8.168;2024-02-23T05:23:51;96664.63;;;5.43;nan
9831;BME280;4954;48.476;8.168;2024-02-23T05:26:18;96665.47;;;5.48;nan
9831;BME280;4954;48.476;8.168;2024-02-23T05:28:45;96668.03;;;5.52;nan
9831;BME280;4954;48.476;8.168;2024-02-23T05:31:13;96671.38;;;5.48;nan
9831;BME280;4954;48.476;8.168;2024-02-23T05:33:40;96662.13;;;5.53;nan
9831;BME280;4954;48.476;8.168;2024-02-23T05:36:07;96659.59;;;5.56;nan
9831;BME280;4954;48.476;8.168;2024-02-23T05:38:34;96662.13;;;5.56;nan
9831;BME280;4954;48.476;8.168;2024-02-23T05:41:01;96660.44;;;5.55;nan
9831;BME280;4954;48.476;8.168;2024-02-23T05:43:30;96665.50;;;5.52;nan
9831;BME280;4954;48.476;8.168;2024-02-23T05:45:57;96672.19;;;5.49;nan
9831;BME280;4954;48.476;8.168;2024-02-23T05:48:25;96668.84;;;5.47;nan
9831;BME280;4954;48.476;8.168;2024-02-23T05:50:52;96667.16;;;5.44;nan
9831;BME280;4954;48.476;8.168;2024-02-23T05:53:19;96657.91;;;5.40;nan
9831;BME280;4954;48.476;8.168;2024-02-23T05:55:46;96673.03;;;5.39;nan
9831;BME280;4954;48.476;8.168;2024-02-23T05:58:13;96672.19;;;5.37;nan
9831;BME280;4954;48.476;8.168;2024-02-23T06:00:41;96662.94;;;5.33;nan
9831;BME280;4954;48.476;8.168;2024-02-23T06:03:08;96667.13;;;5.28;nan
9831;BME280;4954;48.476;8.168;2024-02-23T06:05:37;96679.75;;;5.28;nan
9831;BME280;4954;48.476;8.168;2024-02-23T06:08:04;96683.94;;;5.30;nan
9831;BME280;4954;48.476;8.168;2024-02-23T06:10:32;96681.44;;;5.30;nan
9831;BME280;4954;48.476;8.168;2024-02-23T06:12:58;96688.16;;;5.31;nan
9831;BME280;4954;48.476;8.168;2024-02-23T06:15:25;96686.47;;;5.30;nan
9831;BME280;4954;48.476;8.168;2024-02-23T06:17:52;96689.84;;;5.29;nan
9831;BME280;4954;48.476;8.168;2024-02-23T06:20:19;96681.44;;;5.26;nan
9831;BME280;4954;48.476;8.168;2024-02-23T06:22:47;96686.47;;;5.24;nan
9831;BME280;4954;48.476;8.168;2024-02-23T06:25:14;96673.84;;;5.23;nan
9831;BME280;4954;48.476;8.168;2024-02-23T06:27:41;96669.63;;;5.19;nan
9831;BME280;4954;48.476;8.168;2024-02-23T06:30:09;96667.13;;;5.16;nan
9831;BME280;4954;48.476;8.168;2024-02-23T06:32:36;96663.75;;;5.09;nan
9831;BME280;4954;48.476;8.168;2024-02-23T06:35:04;96667.06;;;5.04;nan
9831;BME280;4954;48.476;8.168;2024-02-23T06:37:32;96677.97;;;4.95;nan
9831;BME280;4954;48.476;8.168;2024-02-23T06:40:00;96673.75;;;4.90;nan
9831;BME280;4954;48.476;8.168;2024-02-23T06:42:27;96673.75;;;4.81;nan
9831;BME280;4954;48.476;8.168;2024-02-23T06:44:54;96664.47;;;4.75;nan
9831;BME280;4954;48.476;8.168;2024-02-23T06:47:21;96661.91;;;4.66;nan
9831;BME280;4954;48.476;8.168;2024-02-23T06:49:50;96665.28;;;4.65;nan
9831;BME280;4954;48.476;8.168;2024-02-23T06:52:17;96669.50;;;4.69;nan
9831;BME280;4954;48.476;8.168;2024-02-23T06:54:44;96671.13;;;4.61;nan
9831;BME280;4954;48.476;8.168;2024-02-23T06:57:13;96679.50;;;4.57;nan
9831;BME280;4954;48.476;8.168;2024-02-23T06:59:40;96685.41;;;4.59;nan
9831;BME280;4954;48.476;8.168;2024-02-23T07:02:07;96676.19;;;4.64;nan
9831;BME280;4954;48.476;8.168;2024-02-23T07:04:34;96677.88;;;4.64;nan
9831;BME280;4954;48.476;8.168;2024-02-23T07:07:01;96688.78;;;4.64;nan
9831;BME280;4954;48.476;8.168;2024-02-23T07:09:32;96681.22;;;4.67;nan
9831;BME280;4954;48.476;8.168;2024-02-23T07:12:00;96694.72;;;4.77;nan
9831;BME280;4954;48.476;8.168;2024-02-23T07:14:28;96702.31;;;4.84;nan
9831;BME280;4954;48.476;8.168;2024-02-23T07:16:55;96695.59;;;4.86;nan
9831;BME280;4954;48.476;8.168;2024-02-23T07:19:22;96703.16;;;4.86;nan
9831;BME280;4954;48.476;8.168;2024-02-23T07:21:49;96706.50;;;4.79;nan
9831;BME280;4954;48.476;8.168;2024-02-23T07:24:16;96709.88;;;4.87;nan
9831;BME280;4954;48.476;8.168;2024-02-23T07:26:44;96708.22;;;4.95;nan
9831;BME280;4954;48.476;8.168;2024-02-23T07:29:12;96698.16;;;4.98;nan
9831;BME280;4954;48.476;8.168;2024-02-23T07:31:40;96700.72;;;5.06;nan
9831;BME280;4954;48.476;8.168;2024-02-23T07:34:07;96713.34;;;5.25;nan
9831;BME280;4954;48.476;8.168;2024-02-23T07:36:35;96711.72;;;5.51;nan
9831;BME280;4954;48.476;8.168;2024-02-23T07:39:02;96704.19;;;5.77;nan
9831;BME280;4954;48.476;8.168;2024-02-23T07:41:29;96698.34;;;6.06;nan
9831;BME280;4954;48.476;8.168;2024-02-23T07:43:56;96697.47;;;6.24;nan
9831;BME280;4954;48.476;8.168;2024-02-23T07:46:23;96705.00;;;6.37;nan
9831;BME280;4954;48.476;8.168;2024-02-23T07:48:51;96714.25;;;6.46;nan
9831;BME280;4954;48.476;8.168;2024-02-23T07:51:19;96710.00;;;6.58;nan
9831;BME280;4954;48.476;8.168;2024-02-23T07:53:46;96707.47;;;6.57;nan
9831;BME280;4954;48.476;8.168;2024-02-23T07:56:13;96709.19;;;6.56;nan
9831;BME280;4954;48.476;8.168;2024-02-23T07:58:40;96709.22;;;6.50;nan
9831;BME280;4954;48.476;8.168;2024-02-23T08:01:07;96710.00;;;6.58;nan
9831;BME280;4954;48.476;8.168;2024-02-23T08:03:34;96704.09;;;6.64;nan
9831;BME280;4954;48.476;8.168;2024-02-23T08:06:03;96709.09;;;6.85;nan
9831;BME280;4954;48.476;8.168;2024-02-23T08:08:30;96706.50;;;6.97;nan
9831;BME280;4954;48.476;8.168;2024-02-23T08:11:00;96705.63;;;7.04;nan
9831;BME280;4954;48.476;8.168;2024-02-23T08:13:27;96703.06;;;7.14;nan
9831;BME280;4954;48.476;8.168;2024-02-23T08:15:54;96698.59;;;7.55;nan
9831;BME280;4954;48.476;8.168;2024-02-23T08:18:21;96693.59;;;8.50;nan
9831;BME280;4954;48.476;8.168;2024-02-23T08:20:48;96690.00;;;10.43;nan
9831;BME280;4954;48.476;8.168;2024-02-23T08:23:16;96678.03;;;12.08;nan
9831;BME280;4954;48.476;8.168;2024-02-23T08:25:45;96673.03;;;13.85;nan
9831;BME280;4954;48.476;8.168;2024-02-23T08:28:14;96676.00;;;14.75;nan
9831;BME280;4954;48.476;8.168;2024-02-23T08:30:44;96669.94;;;15.70;nan
9831;BME280;4954;48.476;8.168;2024-02-23T08:33:12;96666.34;;;15.52;nan
9831;BME280;4954;48.476;8.168;2024-02-23T08:35:39;96664.31;;;15.82;nan
9831;BME280;4954;48.476;8.168;2024-02-23T08:38:06;96660.69;;;16.09;nan
9831;BME280;4954;48.476;8.168;2024-02-23T08:40:35;96651.03;;;16.75;nan
9831;BME280;4954;48.476;8.168;2024-02-23T08:43:03;96642.94;;;17.41;nan
9831;BME280;4954;48.476;8.168;2024-02-23T08:45:31;96642.78;;;18.15;nan
9831;BME280;4954;48.476;8.168;2024-02-23T08:47:58;96635.28;;;19.59;nan
9831;BME280;4954;48.476;8.168;2024-02-23T08:50:25;96635.00;;;20.40;nan
9831;BME280;4954;48.476;8.168;2024-02-23T08:52:52;96643.53;;;20.26;nan
9831;BME280;4954;48.476;8.168;2024-02-23T08:55:19;96633.09;;;19.52;nan
9831;BME280;4954;48.476;8.168;2024-02-23T08:57:48;96628.47;;;18.78;nan
9831;BME280;4954;48.476;8.168;2024-02-23T09:00:15;96629.47;;;19.40;nan
9831;BME280;4954;48.476;8.168;2024-02-23T09:02:42;96637.41;;;17.12;nan
9831;BME280;4954;48.476;8.168;2024-02-23T09:05:10;96643.88;;;17.02;nan
9831;BME280;4954;48.476;8.168;2024-02-23T09:07:37;96640.44;;;18.11;nan
9831;BME280;4954;48.476;8.168;2024-02-23T09:10:05;96632.69;;;19.75;nan
9831;BME280;4954;48.476;8.168;2024-02-23T09:12:33;96640.38;;;20.06;nan
9831;BME280;4954;48.476;8.168;2024-02-23T09:15:02;96633.44;;;21.09;nan
9831;BME280;4954;48.476;8.168;2024-02-23T09:17:31;96618.13;;;20.34;nan
9831;BME280;4954;48.476;8.168;2024-02-23T09:19:59;96642.00;;;18.98;nan
9831;BME280;4954;48.476;8.168;2024-02-23T09:22:26;96637.19;;;16.98;nan
9831;BME280;4954;48.476;8.168;2024-02-23T09:24:56;96631.13;;;19.09;nan
9831;BME280;4954;48.476;8.168;2024-02-23T09:27:23;96628.09;;;20.98;nan
9831;BME280;4954;48.476;8.168;2024-02-23T09:29:50;96604.63;;;21.29;nan
9831;BME280;4954;48.476;8.168;2024-02-23T09:32:18;96613.91;;;21.59;nan
9831;BME280;4954;48.476;8.168;2024-02-23T09:34:45;96608.47;;;21.90;nan
9831;BME280;4954;48.476;8.168;2024-02-23T09:37:12;96598.19;;;22.15;nan
9831;BME280;4954;48.476;8.168;2024-02-23T09:39:39;96595.50;;;22.29;nan
9831;BME280;4954;48.476;8.168;2024-02-23T09:42:09;96596.59;;;21.05;nan
9831;BME280;4954;48.476;8.168;2024-02-23T09:44:37;96599.56;;;20.99;nan
9831;BME280;4954;48.476;8.168;2024-02-23T09:47:06;96599.13;;;22.27;nan
9831;BME280;4954;48.476;8.168;2024-02-23T09:49:39;96591.75;;;22.97;nan
9831;BME280;4954;48.476;8.168;2024-02-23T09:52:07;96594.13;;;23.61;nan
9831;BME280;4954;48.476;8.168;2024-02-23T09:54:36;96586.81;;;23.43;nan
9831;BME280;4954;48.476;8.168;2024-02-23T09:57:07;96588.34;;;23.58;nan
9831;BME280;4954;48.476;8.168;2024-02-23T09:59:35;96587.59;;;22.06;nan
9831;BME280;4954;48.476;8.168;2024-02-23T10:02:07;96590.69;;;24.31;nan
9831;BME280;4954;48.476;8.168;2024-02-23T10:04:37;96591.19;;;24.71;nan
9831;BME280;4954;48.476;8.168;2024-02-23T10:07:05;96593.28;;;24.55;nan
9831;BME280;4954;48.476;8.168;2024-02-23T10:09:33;96585.44;;;25.12;nan
9831;BME280;4954;48.476;8.168;2024-02-23T10:12:00;96591.88;;;23.57;nan
9831;BME280;4954;48.476;8.168;2024-02-23T10:14:28;96593.56;;;23.45;nan
9831;BME280;4954;48.476;8.168;2024-02-23T10:16:59;96592.28;;;22.13;nan
9831;BME280;4954;48.476;8.168;2024-02-23T10:19:27;96596.72;;;21.99;nan
9831;BME280;4954;48.476;8.168;2024-02-23T10:21:56;96592.69;;;20.56;nan
9831;BME280;4954;48.476;8.168;2024-02-23T10:24:23;96596.59;;;20.91;nan
9831;BME280;4954;48.476;8.168;2024-02-23T10:26:51;96593.66;;;20.40;nan
9831;BME280;4954;48.476;8.168;2024-02-23T10:29:18;96592.97;;;19.62;nan
9831;BME280;4954;48.476;8.168;2024-02-23T10:31:46;96586.53;;;19.24;nan
9831;BME280;4954;48.476;8.168;2024-02-23T10:34:17;96594.78;;;20.50;nan
9831;BME280;4954;48.476;8.168;2024-02-23T10:36:46;96584.69;;;20.61;nan
9831;BME280;4954;48.476;8.168;2024-02-23T10:39:18;96579.84;;;22.57;nan
9831;BME280;4954;48.476;8.168;2024-02-23T10:41:49;96584.47;;;23.99;nan
9831;BME280;4954;48.476;8.168;2024-02-23T10:44:23;96577.53;;;23.15;nan
9831;BME280;4954;48.476;8.168;2024-02-23T10:46:54;96577.06;;;21.42;nan
9831;BME280;4954;48.476;8.168;2024-02-23T10:49:23;96581.34;;;20.73;nan
9831;BME280;4954;48.476;8.168;2024-02-23T10:51:53;96585.88;;;20.69;nan
9831;BME280;4954;48.476;8.168;2024-02-23T10:54:23;96576.91;;;21.71;nan
9831;BME280;4954;48.476;8.168;2024-02-23T10:56:50;96578.53;;;22.38;nan
9831;BME280;4954;48.476;8.168;2024-02-23T10:59:18;96574.06;;;20.79;nan
9831;BME280;4954;48.476;8.168;2024-02-23T11:01:49;96585.88;;;17.69;nan
9831;BME280;4954;48.476;8.168;2024-02-23T11:04:19;96587.25;;;16.46;nan
9831;BME280;4954;48.476;8.168;2024-02-23T11:06:50;96579.53;;;16.46;nan
9831;BME280;4954;48.476;8.168;2024-02-23T11:09:21;96584.06;;;15.80;nan
9831;BME280;4954;48.476;8.168;2024-02-23T11:11:54;96583.19;;;15.15;nan
9831;BME280;4954;48.476;8.168;2024-02-23T11:14:31;96582.59;;;14.62;nan
9831;BME280;4954;48.476;8.168;2024-02-23T11:16:58;96579.03;;;13.93;nan
9831;BME280;4954;48.476;8.168;2024-02-23T11:19:32;96589.88;;;12.91;nan
9831;BME280;4954;48.476;8.168;2024-02-23T11:22:01;96586.00;;;13.08;nan
9831;BME280;4954;48.476;8.168;2024-02-23T11:24:30;96591.94;;;13.64;nan
9831;BME280;4954;48.476;8.168;2024-02-23T11:26:58;96590.25;;;13.63;nan
9831;BME280;4954;48.476;8.168;2024-02-23T11:29:33;96586.03;;;13.34;nan
9831;BME280;4954;48.476;8.168;2024-02-23T11:32:02;96588.59;;;13.07;nan
9831;BME280;4954;48.476;8.168;2024-02-23T11:34:30;96591.47;;;12.95;nan
9831;BME280;4954;48.476;8.168;2024-02-23T11:36:57;96590.47;;;12.71;nan
9831;BME280;4954;48.476;8.168;2024-02-23T11:39:26;96596.69;;;12.31;nan
9831;BME280;4954;48.476;8.168;2024-02-23T11:41:57;96592.69;;;12.22;nan
9831;BME280;4954;48.476;8.168;2024-02-23T11:44:27;96586.75;;;12.20;nan
9831;BME280;4954;48.476;8.168;2024-02-23T11:46:54;96590.25;;;11.84;nan
9831;BME280;4954;48.476;8.168;2024-02-23T11:49:27;96592.34;;;12.02;nan
9831;BME280;4954;48.476;8.168;2024-02-23T11:51:55;96585.16;;;11.13;nan
9831;BME280;4954;48.476;8.168;2024-02-23T11:54:22;96592.16;;;11.03;nan
9831;BME280;4954;48.476;8.168;2024-02-23T11:56:49;96587.53;;;11.20;nan
9831;BME280;4954;48.476;8.168;2024-02-23T11:59:19;96587.63;;;10.78;nan
9831;BME280;4954;48.476;8.168;2024-02-23T12:01:48;96580.72;;;10.83;nan
9831;BME280;4954;48.476;8.168;2024-02-23T12:04:15;96578.66;;;11.36;nan
9831;BME280;4954;48.476;8.168;2024-02-23T12:06:42;96575.47;;;11.28;nan
9831;BME280;4954;48.476;8.168;2024-02-23T12:09:11;96570.16;;;11.01;nan
9831;BME280;4954;48.476;8.168;2024-02-23T12:11:40;96565.97;;;11.35;nan
9831;BME280;4954;48.476;8.168;2024-02-23T12:14:07;96571.78;;;11.40;nan
9831;BME280;4954;48.476;8.168;2024-02-23T12:16:36;96554.31;;;11.95;nan
9831;BME280;4954;48.476;8.168;2024-02-23T12:19:03;96561.28;;;12.20;nan
9831;BME280;4954;48.476;8.168;2024-02-23T12:21:33;96554.34;;;12.25;nan
9831;BME280;4954;48.476;8.168;2024-02-23T12:24:04;96553.19;;;12.96;nan
9831;BME280;4954;48.476;8.168;2024-02-23T12:26:33;96552.88;;;12.47;nan
9831;BME280;4954;48.476;8.168;2024-02-23T12:29:00;96555.06;;;13.17;nan
9831;BME280;4954;48.476;8.168;2024-02-23T12:31:30;96548.19;;;14.23;nan
9831;BME280;4954;48.476;8.168;2024-02-23T12:34:00;96553.72;;;15.48;nan
9831;BME280;4954;48.476;8.168;2024-02-23T12:36:28;96541.81;;;15.88;nan
9831;BME280;4954;48.476;8.168;2024-02-23T12:38:56;96554.22;;;15.57;nan
9831;BME280;4954;48.476;8.168;2024-02-23T12:41:23;96541.22;;;16.42;nan
9831;BME280;4954;48.476;8.168;2024-02-23T12:43:50;96533.53;;;17.34;nan
9831;BME280;4954;48.476;8.168;2024-02-23T12:46:18;96551.56;;;16.20;nan
9831;BME280;4954;48.476;8.168;2024-02-23T12:48:45;96551.34;;;15.85;nan
9831;BME280;4954;48.476;8.168;2024-02-23T12:51:13;96550.66;;;15.17;nan
9831;BME280;4954;48.476;8.168;2024-02-23T12:53:41;96553.09;;;14.29;nan
9831;BME280;4954;48.476;8.168;2024-02-23T12:56:10;96554.53;;;13.61;nan
9831;BME280;4954;48.476;8.168;2024-02-23T12:58:40;96550.34;;;13.59;nan
9831;BME280;4954;48.476;8.168;2024-02-23T13:01:08;96558.88;;;13.32;nan
9831;BME280;4954;48.476;8.168;2024-02-23T13:03:37;96563.88;;;12.78;nan
9831;BME280;4954;48.476;8.168;2024-02-23T13:06:06;96568.09;;;11.88;nan
9831;BME280;4954;48.476;8.168;2024-02-23T13:08:34;96575.91;;;11.09;nan
9831;BME280;4954;48.476;8.168;2024-02-23T13:11:02;96590.38;;;10.66;nan
9831;BME280;4954;48.476;8.168;2024-02-23T13:13:29;96594.69;;;10.21;nan
9831;BME280;4954;48.476;8.168;2024-02-23T13:15:57;96592.50;;;9.99;nan
9831;BME280;4954;48.476;8.168;2024-02-23T13:18:24;96597.00;;;9.83;nan
9831;BME280;4954;48.476;8.168;2024-02-23T13:20:51;96607.53;;;9.62;nan
9831;BME280;4954;48.476;8.168;2024-02-23T13:23:17;96617.50;;;9.20;nan
9831;BME280;4954;48.476;8.168;2024-02-23T13:25:46;96617.44;;;8.61;nan
9831;BME280;4954;48.476;8.168;2024-02-23T13:28:13;96603.81;;;8.66;nan
9831;BME280;4954;48.476;8.168;2024-02-23T13:30:40;96601.66;;;9.03;nan
9831;BME280;4954;48.476;8.168;2024-02-23T13:33:08;96591.56;;;9.54;nan
9831;BME280;4954;48.476;8.168;2024-02-23T13:35:36;96572.31;;;10.38;nan
9831;BME280;4954;48.476;8.168;2024-02-23T13:38:04;96560.34;;;10.43;nan
9831;BME280;4954;48.476;8.168;2024-02-23T13:40:32;96566.59;;;10.68;nan
9831;BME280;4954;48.476;8.168;2024-02-23T13:43:00;96555.31;;;11.19;nan
9831;BME280;4954;48.476;8.168;2024-02-23T13:45:28;96558.91;;;11.82;nan
9831;BME280;4954;48.476;8.168;2024-02-23T13:47:57;96553.91;;;12.10;nan
9831;BME280;4954;48.476;8.168;2024-02-23T13:50:25;96546.50;;;12.62;nan
9831;BME280;4954;48.476;8.168;2024-02-23T13:52:53;96534.41;;;12.97;nan
9831;BME280;4954;48.476;8.168;2024-02-23T13:55:20;96529.16;;;13.29;nan